createdAt,value
2017-08-24T00:01:34.875Z,89.60
2017-08-24T00:04:02.420Z,88.90
2017-08-24T00:06:29.982Z,89.80
2017-08-24T00:08:57.515Z,89.90
2017-08-24T00:11:27.156Z,90.00
2017-08-24T00:13:55.601Z,90.00
2017-08-24T00:16:23.110Z,90.20
2017-08-24T00:18:50.755Z,90.40
2017-08-24T00:21:18.280Z,90.60
2017-08-24T00:23:45.793Z,90.70
2017-08-24T00:26:13.297Z,90.80
2017-08-24T00:28:40.865Z,90.80
2017-08-24T00:31:08.774Z,91.00
2017-08-24T00:33:39.972Z,91.00
2017-08-24T00:36:07.484Z,91.30
2017-08-24T00:38:35.003Z,91.30
2017-08-24T00:41:03.297Z,91.30
2017-08-24T00:43:30.839Z,91.30
2017-08-24T00:45:59.735Z,91.40
2017-08-24T00:48:30.434Z,91.40
2017-08-24T00:50:58.019Z,91.50
2017-08-24T00:53:25.579Z,91.80
2017-08-24T00:55:53.139Z,91.50
2017-08-24T00:58:20.667Z,91.80
2017-08-24T01:00:48.620Z,91.90
2017-08-24T01:03:16.180Z,92.00
2017-08-24T01:05:43.735Z,91.90
2017-08-24T01:08:11.301Z,92.00
2017-08-24T01:10:38.842Z,92.10
2017-08-24T01:13:07.791Z,92.20
2017-08-24T01:15:36.067Z,92.00
2017-08-24T01:18:03.570Z,92.00
2017-08-24T01:20:31.082Z,92.10
2017-08-24T01:22:58.591Z,92.20
2017-08-24T01:25:26.861Z,92.50
2017-08-24T01:27:55.131Z,92.30
2017-08-24T01:30:22.638Z,92.30
2017-08-24T01:32:50.168Z,92.30
2017-08-24T01:35:17.675Z,92.30
2017-08-24T01:37:45.800Z,92.30
2017-08-24T01:40:13.340Z,92.20
2017-08-24T01:42:40.915Z,91.90
2017-08-24T01:45:08.540Z,92.10
2017-08-24T01:47:36.048Z,92.50
2017-08-24T01:50:03.563Z,92.60
2017-08-24T01:52:34.685Z,92.70
2017-08-24T01:55:02.751Z,92.70
2017-08-24T01:57:30.290Z,92.70
2017-08-24T01:59:57.803Z,92.70
2017-08-24T02:02:25.372Z,92.70
2017-08-24T02:04:58.482Z,92.90
2017-08-24T02:07:29.678Z,92.90
2017-08-24T02:09:57.214Z,93.30
2017-08-24T02:12:25.302Z,93.40
2017-08-24T02:14:52.863Z,93.60
2017-08-24T02:17:20.426Z,93.60
2017-08-24T02:19:51.759Z,93.60
2017-08-24T02:22:19.293Z,93.40
2017-08-24T02:24:47.605Z,93.50
2017-08-24T02:27:15.808Z,93.20
2017-08-24T02:29:43.322Z,93.20
2017-08-24T02:32:10.887Z,93.40
2017-08-24T02:34:39.379Z,93.70
2017-08-24T02:37:11.321Z,93.90
2017-08-24T02:39:38.896Z,94.00
2017-08-24T02:42:06.441Z,93.90
2017-08-24T02:44:35.279Z,93.80
2017-08-24T02:47:02.798Z,93.80
2017-08-24T02:49:30.720Z,93.90
2017-08-24T02:52:01.813Z,93.90
2017-08-24T02:54:30.012Z,93.80
2017-08-24T02:56:57.553Z,94.00
2017-08-24T02:59:25.312Z,93.90
2017-08-24T03:01:53.750Z,93.80
2017-08-24T03:04:21.276Z,93.90
2017-08-24T03:06:48.835Z,93.80
2017-08-24T03:09:19.348Z,93.80
2017-08-24T03:11:46.853Z,93.80
2017-08-24T03:14:15.159Z,93.70
2017-08-24T03:16:44.164Z,93.70
2017-08-24T03:19:11.704Z,93.70
2017-08-24T03:21:41.550Z,93.70
2017-08-24T03:24:09.098Z,93.70
2017-08-24T03:26:36.644Z,94.00
2017-08-24T03:29:04.919Z,94.30
2017-08-24T03:31:33.516Z,94.40
2017-08-24T03:34:01.084Z,94.30
2017-08-24T03:36:30.310Z,94.40
2017-08-24T03:39:01.758Z,94.40
2017-08-24T03:41:29.278Z,94.20
2017-08-24T03:43:58.756Z,94.50
2017-08-24T03:46:26.275Z,94.50
2017-08-24T03:48:53.792Z,94.50
2017-08-24T03:51:25.593Z,94.50
2017-08-24T03:53:53.128Z,94.50
2017-08-24T03:56:21.406Z,94.60
2017-08-24T03:58:49.879Z,94.60
2017-08-24T04:01:17.506Z,94.70
2017-08-24T04:03:45.044Z,94.60
2017-08-24T04:06:12.951Z,94.70
2017-08-24T04:08:47.596Z,94.80
2017-08-24T04:11:16.588Z,94.90
2017-08-24T04:13:44.893Z,95.00
2017-08-24T04:16:12.816Z,94.70
2017-08-24T04:18:40.377Z,94.20
2017-08-24T04:21:07.885Z,94.10
2017-08-24T04:23:35.406Z,94.40
2017-08-24T04:26:02.923Z,94.20
2017-08-24T04:28:30.444Z,94.50
2017-08-24T04:30:57.975Z,94.50
2017-08-24T04:33:26.244Z,94.50
2017-08-24T04:35:53.781Z,94.40
2017-08-24T04:38:22.564Z,94.10
2017-08-24T04:40:50.064Z,93.80
2017-08-24T04:43:18.391Z,93.20
2017-08-24T04:45:45.896Z,92.30
2017-08-24T04:48:13.863Z,91.80
2017-08-24T04:50:41.380Z,91.20
2017-08-24T04:53:12.219Z,90.90
2017-08-24T04:55:39.719Z,90.80
2017-08-24T04:58:07.288Z,90.70
2017-08-24T05:00:35.883Z,90.40
2017-08-24T05:03:05.095Z,90.30
2017-08-24T05:05:32.603Z,90.30
2017-08-24T05:08:03.722Z,90.30
2017-08-24T05:10:31.232Z,90.20
2017-08-24T05:12:58.739Z,89.00
2017-08-24T05:15:27.279Z,90.20
2017-08-24T05:17:54.786Z,89.80
2017-08-24T05:20:22.836Z,88.80
2017-08-24T05:22:50.339Z,88.30
2017-08-24T05:25:17.851Z,88.50
2017-08-24T05:27:46.139Z,88.00
2017-08-24T05:30:13.795Z,88.00
2017-08-24T05:32:41.352Z,88.00
2017-08-24T05:35:08.855Z,88.10
2017-08-24T05:37:36.389Z,87.40
2017-08-24T05:40:03.931Z,88.20
2017-08-24T05:42:31.540Z,87.70
2017-08-24T05:44:59.082Z,86.20
2017-08-24T05:47:27.957Z,85.50
2017-08-24T05:49:55.475Z,86.30
2017-08-24T05:52:23.031Z,86.20
2017-08-24T05:54:50.553Z,86.50
2017-08-24T05:57:21.180Z,86.20
2017-08-24T05:59:48.688Z,84.60
2017-08-24T06:02:16.540Z,84.00
2017-08-24T06:04:44.072Z,84.50
2017-08-24T06:07:11.587Z,83.90
2017-08-24T06:09:42.866Z,83.70
2017-08-24T06:12:11.331Z,84.70
2017-08-24T06:14:38.826Z,85.30
2017-08-24T06:17:06.411Z,85.70
2017-08-24T06:19:33.940Z,85.60
2017-08-24T06:22:01.808Z,85.40
2017-08-24T06:24:29.324Z,84.00
2017-08-24T06:26:56.828Z,83.90
2017-08-24T06:29:29.285Z,83.10
2017-08-24T06:31:56.792Z,83.00
2017-08-24T06:34:25.061Z,82.80
2017-08-24T06:36:53.075Z,82.30
2017-08-24T06:39:23.931Z,79.90
2017-08-24T06:41:51.432Z,79.70
2017-08-24T06:44:19.881Z,78.60
2017-08-24T06:46:47.419Z,78.20
2017-08-24T06:49:14.919Z,77.90
2017-08-24T06:51:42.467Z,78.00
2017-08-24T06:54:09.967Z,78.30
2017-08-24T06:56:37.499Z,78.20
2017-08-24T06:59:05.011Z,79.50
2017-08-24T07:01:34.204Z,77.30
2017-08-24T07:04:01.755Z,77.20
2017-08-24T07:06:29.279Z,78.30
2017-08-24T07:08:56.788Z,76.20
2017-08-24T07:11:24.372Z,74.80
2017-08-24T07:13:53.556Z,74.50
2017-08-24T07:16:22.023Z,74.40
2017-08-24T07:18:49.571Z,74.10
2017-08-24T07:21:17.734Z,74.20
2017-08-24T07:23:45.257Z,74.60
2017-08-24T07:26:16.399Z,71.80
2017-08-24T07:28:50.624Z,69.40
2017-08-24T07:31:18.547Z,63.70
2017-08-24T07:33:46.067Z,59.60
2017-08-24T07:36:13.589Z,57.80
2017-08-24T07:38:41.128Z,56.00
2017-08-24T07:41:09.411Z,61.20
2017-08-24T07:43:39.356Z,61.20
2017-08-24T07:46:06.895Z,65.00
2017-08-24T07:48:34.599Z,68.30
2017-08-24T07:51:02.412Z,70.20
2017-08-24T07:53:29.924Z,72.50
2017-08-24T07:56:01.276Z,73.50
2017-08-24T07:58:28.801Z,73.10
2017-08-24T08:00:58.007Z,72.00
2017-08-24T08:03:25.517Z,71.90
2017-08-24T08:05:53.020Z,70.10
2017-08-24T08:08:20.549Z,68.30
2017-08-24T08:10:51.231Z,65.30
2017-08-24T08:13:19.495Z,53.60
2017-08-24T08:15:47.380Z,53.50
2017-08-24T08:18:14.932Z,52.10
2017-08-24T08:20:42.472Z,50.20
2017-08-24T08:23:10.046Z,49.10
2017-08-24T08:25:37.564Z,50.60
2017-08-24T08:28:06.467Z,50.10
2017-08-24T08:30:34.024Z,50.10
2017-08-24T08:33:01.599Z,49.40
2017-08-24T08:35:29.160Z,47.60
2017-08-24T08:37:56.862Z,46.90
2017-08-24T08:40:25.975Z,45.90
2017-08-24T08:42:53.480Z,45.90
2017-08-24T08:45:21.778Z,45.90
2017-08-24T08:47:49.605Z,45.90
2017-08-24T08:50:17.144Z,45.60
2017-08-24T08:52:44.644Z,46.40
2017-08-24T08:55:12.218Z,46.90
2017-08-24T08:57:39.719Z,48.10
2017-08-24T09:00:07.227Z,49.00
2017-08-24T09:02:35.543Z,50.70
2017-08-24T09:05:03.480Z,50.70
2017-08-24T09:07:30.979Z,51.40
2017-08-24T09:09:58.539Z,53.40
2017-08-24T09:12:30.547Z,56.30
2017-08-24T09:14:58.654Z,59.60
2017-08-24T09:17:26.172Z,61.40
2017-08-24T09:19:53.695Z,62.00
2017-08-24T09:22:21.211Z,63.80
2017-08-24T09:24:48.747Z,63.80
2017-08-24T09:27:17.219Z,65.20
2017-08-24T09:29:46.793Z,66.70
2017-08-24T09:32:14.357Z,68.70
2017-08-24T09:34:41.873Z,70.00
2017-08-24T09:37:09.413Z,70.80
2017-08-24T09:39:36.980Z,72.40
2017-08-24T09:42:04.940Z,74.50
2017-08-24T09:44:32.463Z,75.80
2017-08-24T09:46:59.982Z,76.50
2017-08-24T09:49:27.515Z,77.30
2017-08-24T09:51:55.828Z,74.60
2017-08-24T09:54:23.379Z,71.40
2017-08-24T09:56:50.908Z,70.40
2017-08-24T09:59:18.420Z,70.00
2017-08-24T10:01:46.201Z,69.00
2017-08-24T10:04:13.713Z,68.20
2017-08-24T10:06:41.240Z,69.30
2017-08-24T10:09:09.371Z,71.20
2017-08-24T10:11:37.646Z,75.30
2017-08-24T10:14:05.160Z,75.30
2017-08-24T10:16:40.070Z,76.70
2017-08-24T10:19:07.585Z,76.80
2017-08-24T10:21:35.161Z,77.30
2017-08-24T10:24:02.719Z,79.80
2017-08-24T10:26:30.232Z,80.70
2017-08-24T10:28:58.401Z,82.90
2017-08-24T10:31:26.059Z,82.00
2017-08-24T10:33:53.639Z,80.10
2017-08-24T10:36:21.940Z,78.90
2017-08-24T10:38:49.451Z,78.80
2017-08-24T10:41:16.961Z,74.80
2017-08-24T10:43:48.055Z,67.30
2017-08-24T10:46:15.584Z,59.00
2017-08-24T10:48:44.268Z,55.30
2017-08-24T10:51:11.800Z,55.30
2017-08-24T10:53:39.320Z,57.90
2017-08-24T10:56:06.831Z,60.50
2017-08-24T10:58:38.524Z,61.10
2017-08-24T11:01:06.041Z,64.00
2017-08-24T11:03:33.615Z,66.90
2017-08-24T11:06:01.160Z,68.90
2017-08-24T11:08:28.772Z,70.70
2017-08-24T11:10:56.300Z,72.20
2017-08-24T11:13:23.808Z,72.50
2017-08-24T11:15:59.463Z,73.80
2017-08-24T11:18:27.919Z,74.00
2017-08-24T11:20:56.487Z,73.30
2017-08-24T11:23:23.992Z,73.20
2017-08-24T11:25:51.503Z,73.10
2017-08-24T11:28:20.053Z,73.50
2017-08-24T11:30:47.576Z,73.00
2017-08-24T11:33:15.083Z,69.60
2017-08-24T11:35:43.369Z,59.60
2017-08-24T11:38:12.612Z,54.40
2017-08-24T11:40:40.110Z,54.30
2017-08-24T11:43:07.616Z,54.60
2017-08-24T11:45:36.845Z,54.50
2017-08-24T11:48:04.349Z,54.50
2017-08-24T11:50:31.852Z,53.00
2017-08-24T11:52:59.432Z,53.00
2017-08-24T11:55:26.937Z,52.30
2017-08-24T11:57:54.451Z,50.00
2017-08-24T12:00:21.951Z,48.50
2017-08-24T12:02:50.321Z,46.00
2017-08-24T12:05:17.861Z,44.60
2017-08-24T12:07:45.394Z,42.30
2017-08-24T12:10:12.904Z,40.50
2017-08-24T12:12:40.407Z,43.00
2017-08-24T12:15:09.427Z,44.70
2017-08-24T12:17:37.810Z,46.10
2017-08-24T12:20:05.315Z,46.20
2017-08-24T12:22:32.847Z,45.60
2017-08-24T12:25:00.361Z,46.00
2017-08-24T12:27:28.825Z,48.40
2017-08-24T12:29:56.359Z,51.20
2017-08-24T12:32:26.890Z,50.40
2017-08-24T12:34:54.638Z,50.40
2017-08-24T12:37:22.203Z,49.40
2017-08-24T12:39:50.217Z,47.00
2017-08-24T12:42:17.879Z,45.40
2017-08-24T12:44:46.317Z,41.80
2017-08-24T12:47:13.840Z,39.40
2017-08-24T12:49:41.352Z,40.70
2017-08-24T12:52:08.862Z,42.40
2017-08-24T12:54:37.427Z,48.50
2017-08-24T12:57:04.963Z,48.40
2017-08-24T12:59:32.524Z,48.50
2017-08-24T13:02:00.023Z,49.00
2017-08-24T13:04:32.484Z,47.20
2017-08-24T13:07:00.047Z,47.50
2017-08-24T13:09:27.716Z,47.40
2017-08-24T13:11:55.236Z,46.50
2017-08-24T13:14:23.511Z,46.50
2017-08-24T13:16:54.381Z,46.50
2017-08-24T13:19:25.802Z,45.50
2017-08-24T13:21:53.348Z,45.40
2017-08-24T13:24:21.643Z,45.70
2017-08-24T13:26:49.912Z,46.00
2017-08-24T13:29:17.442Z,46.00
2017-08-24T13:31:46.126Z,46.20
2017-08-24T13:34:14.435Z,46.50
2017-08-24T13:36:41.981Z,48.50
2017-08-24T13:39:09.492Z,47.30
2017-08-24T13:41:37.000Z,45.80
2017-08-24T13:44:04.509Z,47.70
2017-08-24T13:46:32.026Z,47.20
2017-08-24T13:48:59.939Z,47.60
2017-08-24T13:51:27.951Z,46.70
2017-08-24T13:53:58.796Z,46.60
2017-08-24T13:56:26.316Z,48.40
2017-08-24T13:58:53.817Z,47.70
2017-08-24T14:01:23.034Z,48.60
2017-08-24T14:03:50.555Z,47.90
2017-08-24T14:06:18.552Z,46.90
2017-08-24T14:08:46.086Z,48.60
2017-08-24T14:11:14.339Z,47.10
2017-08-24T14:13:41.858Z,48.10
2017-08-24T14:16:09.411Z,47.80
2017-08-24T14:18:37.687Z,49.00
2017-08-24T14:21:05.219Z,49.00
2017-08-24T14:23:33.180Z,48.60
2017-08-24T14:26:00.687Z,46.40
2017-08-24T14:28:28.183Z,48.20
2017-08-24T14:30:55.711Z,50.40
2017-08-24T14:33:23.219Z,50.10
2017-08-24T14:35:51.443Z,50.20
2017-08-24T14:38:18.964Z,49.60
2017-08-24T14:40:47.405Z,51.10
2017-08-24T14:43:14.912Z,49.50
2017-08-24T14:45:42.487Z,49.80
2017-08-24T14:48:10.043Z,50.30
2017-08-24T14:50:38.364Z,50.10
2017-08-24T14:53:07.027Z,50.80
2017-08-24T14:55:34.537Z,50.80
2017-08-24T14:58:02.040Z,51.70
2017-08-24T15:00:30.100Z,51.90
2017-08-24T15:02:59.953Z,53.00
2017-08-24T15:05:27.504Z,53.20
2017-08-24T15:07:57.827Z,54.30
2017-08-24T15:10:26.328Z,54.30
2017-08-24T15:12:53.857Z,53.20
2017-08-24T15:15:21.826Z,53.70
2017-08-24T15:17:49.335Z,54.60
2017-08-24T15:20:16.855Z,55.30
2017-08-24T15:22:47.381Z,54.80
2017-08-24T15:25:15.186Z,54.60
2017-08-24T15:27:42.794Z,55.30
2017-08-24T15:30:11.129Z,55.30
2017-08-24T15:32:38.648Z,56.10
2017-08-24T15:35:06.167Z,55.90
2017-08-24T15:37:33.685Z,57.00
2017-08-24T15:40:01.195Z,57.90
2017-08-24T15:42:30.104Z,57.30
2017-08-24T15:44:57.645Z,57.50
2017-08-24T15:47:25.159Z,57.60
2017-08-24T15:49:53.683Z,57.80
2017-08-24T15:52:21.181Z,57.80
2017-08-24T15:54:49.452Z,56.40
2017-08-24T15:57:16.958Z,56.40
2017-08-24T15:59:44.476Z,57.70
2017-08-24T16:02:11.992Z,58.30
2017-08-24T16:04:39.516Z,60.80
2017-08-24T16:07:07.611Z,59.30
2017-08-24T16:09:35.107Z,60.80
2017-08-24T16:12:02.619Z,59.60
2017-08-24T16:14:30.378Z,60.10
2017-08-24T16:16:57.884Z,60.30
2017-08-24T16:19:25.467Z,60.90
2017-08-24T16:21:53.759Z,60.50
2017-08-24T16:24:21.283Z,60.40
2017-08-24T16:26:48.847Z,61.50
2017-08-24T16:29:16.371Z,62.40
2017-08-24T16:31:43.879Z,62.30
2017-08-24T16:34:13.447Z,64.50
2017-08-24T16:36:40.955Z,64.50
2017-08-24T16:39:08.455Z,65.10
2017-08-24T16:41:36.016Z,65.60
2017-08-24T16:44:03.540Z,66.00
2017-08-24T16:46:31.092Z,66.40
2017-08-24T16:48:59.375Z,67.10
2017-08-24T16:51:26.927Z,66.90
2017-08-24T16:53:54.429Z,67.80
2017-08-24T16:56:21.948Z,68.00
2017-08-24T16:58:49.507Z,68.60
2017-08-24T17:01:17.008Z,69.30
2017-08-24T17:03:44.516Z,69.30
2017-08-24T17:06:13.775Z,71.50
2017-08-24T17:08:41.322Z,71.50
2017-08-24T17:11:08.840Z,70.20
2017-08-24T17:13:36.395Z,70.70
2017-08-24T17:16:03.932Z,71.10
2017-08-24T17:18:33.148Z,71.80
2017-08-24T17:21:00.687Z,72.10
2017-08-24T17:23:28.220Z,72.00
2017-08-24T17:25:55.757Z,71.90
2017-08-24T17:28:23.312Z,72.90
2017-08-24T17:30:51.660Z,72.80
2017-08-24T17:33:19.276Z,73.70
2017-08-24T17:35:51.113Z,73.40
2017-08-24T17:38:18.647Z,74.20
2017-08-24T17:40:46.585Z,74.60
2017-08-24T17:43:14.103Z,74.60
2017-08-24T17:45:41.645Z,74.10
2017-08-24T17:48:09.252Z,75.30
2017-08-24T17:50:40.364Z,75.50
2017-08-24T17:53:08.651Z,76.20
2017-08-24T17:55:36.958Z,76.10
2017-08-24T17:58:05.608Z,76.50
2017-08-24T18:00:33.884Z,76.20
2017-08-24T18:03:02.575Z,76.90
2017-08-24T18:05:30.574Z,76.90
2017-08-24T18:07:58.076Z,76.50
2017-08-24T18:10:25.592Z,77.90
2017-08-24T18:12:53.095Z,79.00
2017-08-24T18:15:20.606Z,78.90
2017-08-24T18:17:48.122Z,79.90
2017-08-24T18:20:15.625Z,80.20
2017-08-24T18:22:43.144Z,79.40
2017-08-24T18:25:10.660Z,81.50
2017-08-24T18:27:38.776Z,82.20
2017-08-24T18:30:06.295Z,81.90
2017-08-24T18:32:33.991Z,82.40
2017-08-24T18:35:01.500Z,83.40
2017-08-24T18:37:29.020Z,84.00
2017-08-24T18:39:56.538Z,85.80
2017-08-24T18:42:24.955Z,85.50
2017-08-24T18:44:52.479Z,86.10
2017-08-24T18:47:20.063Z,86.20
2017-08-24T18:49:47.593Z,86.50
2017-08-24T18:52:16.761Z,86.80
2017-08-24T18:54:44.328Z,86.10
2017-08-24T18:57:12.078Z,86.80
2017-08-24T18:59:39.824Z,87.10
2017-08-24T19:02:07.380Z,87.40
2017-08-24T19:04:35.356Z,86.60
2017-08-24T19:07:02.893Z,85.10
2017-08-24T19:09:31.243Z,84.10
2017-08-24T19:11:59.520Z,82.90
2017-08-24T19:14:27.124Z,82.90
2017-08-24T19:16:54.631Z,83.40
2017-08-24T19:19:22.395Z,82.60
2017-08-24T19:21:53.748Z,81.50
2017-08-24T19:24:24.907Z,81.50
2017-08-24T19:26:52.552Z,81.00
2017-08-24T19:29:20.619Z,78.80
2017-08-24T19:31:48.294Z,77.50
2017-08-24T19:34:15.834Z,76.40
2017-08-24T19:36:43.403Z,75.30
2017-08-24T19:39:10.963Z,75.10
2017-08-24T19:41:38.506Z,74.90
2017-08-24T19:44:06.662Z,74.90
2017-08-24T19:46:34.714Z,75.80
2017-08-24T19:49:02.230Z,74.40
2017-08-24T19:51:29.924Z,75.10
2017-08-24T19:53:57.447Z,75.90
2017-08-24T19:56:25.844Z,77.40
2017-08-24T19:58:54.237Z,77.20
2017-08-24T20:01:21.763Z,77.20
2017-08-24T20:03:50.095Z,79.20
2017-08-24T20:06:18.368Z,79.20
2017-08-24T20:08:49.599Z,78.80
2017-08-24T20:11:17.131Z,80.30
2017-08-24T20:13:44.628Z,80.30
2017-08-24T20:16:13.054Z,80.10
2017-08-24T20:18:40.615Z,79.60
2017-08-24T20:21:08.122Z,80.00
2017-08-24T20:23:35.623Z,80.50
2017-08-24T20:26:03.189Z,82.00
2017-08-24T20:28:30.909Z,81.70
2017-08-24T20:30:58.436Z,84.40
2017-08-24T20:33:27.519Z,86.50
2017-08-24T20:35:55.064Z,86.40
2017-08-24T20:38:22.648Z,84.00
2017-08-24T20:40:58.236Z,85.10
2017-08-24T20:43:25.735Z,85.20
2017-08-24T20:45:53.264Z,83.90
2017-08-24T20:48:22.464Z,83.70
2017-08-24T20:50:52.918Z,83.50
2017-08-24T20:53:20.475Z,80.90
2017-08-24T20:55:51.539Z,83.90
2017-08-24T20:58:19.095Z,84.80
2017-08-24T21:00:47.708Z,85.80
2017-08-24T21:03:15.253Z,85.80
2017-08-24T21:05:42.755Z,85.20
2017-08-24T21:08:11.471Z,85.70
2017-08-24T21:10:39.035Z,86.20
2017-08-24T21:13:06.592Z,85.90
2017-08-24T21:15:34.110Z,86.30
2017-08-24T21:18:01.613Z,86.60
2017-08-24T21:20:29.126Z,86.60
2017-08-24T21:22:56.656Z,86.80
2017-08-24T21:25:29.367Z,87.80
2017-08-24T21:27:56.911Z,87.80
2017-08-24T21:30:24.460Z,87.70
2017-08-24T21:32:51.967Z,88.40
2017-08-24T21:35:20.180Z,88.20
2017-08-24T21:37:47.700Z,88.20
2017-08-24T21:40:18.208Z,89.50
2017-08-24T21:42:45.716Z,89.60
2017-08-24T21:45:13.307Z,90.00
2017-08-24T21:47:40.811Z,90.30
2017-08-24T21:50:08.354Z,90.40
2017-08-24T21:52:35.862Z,90.10
2017-08-24T21:55:08.081Z,90.30
2017-08-24T21:57:35.593Z,90.50
2017-08-24T22:00:04.800Z,90.40
2017-08-24T22:02:32.314Z,90.40
2017-08-24T22:05:00.970Z,90.70
2017-08-24T22:07:29.395Z,90.80
2017-08-24T22:09:57.378Z,90.80
2017-08-24T22:12:24.880Z,90.90
2017-08-24T22:14:52.384Z,90.90
2017-08-24T22:17:19.891Z,91.00
2017-08-24T22:19:49.088Z,90.90
2017-08-24T22:22:16.588Z,90.90
2017-08-24T22:24:45.598Z,90.80
2017-08-24T22:27:13.278Z,90.90
2017-08-24T22:29:41.551Z,91.10
2017-08-24T22:32:09.115Z,91.10
2017-08-24T22:34:36.621Z,91.10
2017-08-24T22:37:04.160Z,91.30
2017-08-24T22:39:32.260Z,91.60
2017-08-24T22:42:00.690Z,91.40
2017-08-24T22:44:28.198Z,91.50
2017-08-24T22:46:55.847Z,91.60
2017-08-24T22:49:23.351Z,91.30
2017-08-24T22:51:51.621Z,91.40
2017-08-24T22:54:25.717Z,91.60
2017-08-24T22:57:00.953Z,91.80
2017-08-24T22:59:34.116Z,91.90
2017-08-24T23:02:07.991Z,92.20
2017-08-24T23:04:35.888Z,92.20
2017-08-24T23:07:03.397Z,92.20
2017-08-24T23:09:31.469Z,92.40
2017-08-24T23:12:02.289Z,92.50
2017-08-24T23:14:29.860Z,92.50
2017-08-24T23:16:57.420Z,92.50
2017-08-24T23:19:24.999Z,92.60
2017-08-24T23:21:52.507Z,92.90
2017-08-24T23:24:20.821Z,93.30
2017-08-24T23:26:52.927Z,93.30
2017-08-24T23:29:20.451Z,93.30
2017-08-24T23:31:48.005Z,93.10
2017-08-24T23:34:15.547Z,93.00
2017-08-24T23:36:43.882Z,93.00
2017-08-24T23:39:11.415Z,93.00
2017-08-24T23:41:39.141Z,93.00
2017-08-24T23:44:06.676Z,93.20
2017-08-24T23:46:34.180Z,93.40
2017-08-24T23:49:03.486Z,93.20
2017-08-24T23:51:31.047Z,93.20
2017-08-24T23:53:58.547Z,93.10
2017-08-24T23:56:31.027Z,93.40
2017-08-24T23:58:59.004Z,93.50
